sensor_id;sensor_type;location;lat;lon;timestamp;pressure;altitude;pressure_sealevel;temperature;humidity
13312;BME280;34033;48.672;9.376;2023-09-08T00:02:05;98768.31;;;21.70;61.06
13312;BME280;34033;48.672;9.376;2023-09-08T00:04:31;98775.59;;;21.71;61.05
13312;BME280;34033;48.672;9.376;2023-09-08T00:06:58;98768.31;;;21.70;61.32
13312;BME280;34033;48.672;9.376;2023-09-08T00:09:23;98771.59;;;21.68;61.03
13312;BME280;34033;48.672;9.376;2023-09-08T00:11:49;98767.28;;;21.63;60.94
13312;BME280;34033;48.672;9.376;2023-09-08T00:14:14;98765.22;;;21.64;61.16
13312;BME280;34033;48.672;9.376;2023-09-08T00:16:39;98763.63;;;21.63;61.13
13312;BME280;34033;48.672;9.376;2023-09-08T00:19:08;98769.47;;;21.59;60.98
13312;BME280;34033;48.672;9.376;2023-09-08T00:21:33;98764.78;;;21.53;61.09
13312;BME280;34033;48.672;9.376;2023-09-08T00:23:58;98767.63;;;21.53;61.42
13312;BME280;34033;48.672;9.376;2023-09-08T00:26:24;98765.25;;;21.51;61.18
13312;BME280;34033;48.672;9.376;2023-09-08T00:28:49;98755.69;;;21.45;60.93
13312;BME280;34033;48.672;9.376;2023-09-08T00:31:15;98762.97;;;21.46;60.63
13312;BME280;34033;48.672;9.376;2023-09-08T00:33:40;98759.59;;;21.39;60.61
13312;BME280;34033;48.672;9.376;2023-09-08T00:36:09;98753.09;;;21.38;60.93
13312;BME280;34033;48.672;9.376;2023-09-08T00:38:35;98754.66;;;21.39;61.05
13312;BME280;34033;48.672;9.376;2023-09-08T00:41:00;98762.06;;;21.37;60.29
13312;BME280;34033;48.672;9.376;2023-09-08T00:43:26;98757.75;;;21.32;60.75
13312;BME280;34033;48.672;9.376;2023-09-08T00:45:52;98761.84;;;21.31;60.85
13312;BME280;34033;48.672;9.376;2023-09-08T00:48:18;98754.34;;;21.25;61.24
13312;BME280;34033;48.672;9.376;2023-09-08T00:50:43;98759.13;;;21.15;61.23
13312;BME280;34033;48.672;9.376;2023-09-08T00:53:10;98758.84;;;21.09;61.33
13312;BME280;34033;48.672;9.376;2023-09-08T00:55:36;98757.59;;;20.98;61.61
13312;BME280;34033;48.672;9.376;2023-09-08T00:58:02;98766.47;;;21.00;61.78
13312;BME280;34033;48.672;9.376;2023-09-08T01:00:28;98762.59;;;21.06;61.75
13312;BME280;34033;48.672;9.376;2023-09-08T01:02:53;98755.56;;;21.11;61.65
13312;BME280;34033;48.672;9.376;2023-09-08T01:05:19;98753.78;;;21.17;61.14
13312;BME280;34033;48.672;9.376;2023-09-08T01:07:46;98754.09;;;21.19;61.12
13312;BME280;34033;48.672;9.376;2023-09-08T01:10:13;98755.25;;;21.21;60.90
13312;BME280;34033;48.672;9.376;2023-09-08T01:12:39;98760.16;;;21.21;60.94
13312;BME280;34033;48.672;9.376;2023-09-08T01:15:06;98754.47;;;21.21;61.05
13312;BME280;34033;48.672;9.376;2023-09-08T01:17:33;98754.91;;;21.19;60.82
13312;BME280;34033;48.672;9.376;2023-09-08T01:20:04;98755.34;;;21.18;60.87
13312;BME280;34033;48.672;9.376;2023-09-08T01:25:18;98763.63;;;21.12;60.85
13312;BME280;34033;48.672;9.376;2023-09-08T01:27:48;98763.75;;;21.09;61.13
13312;BME280;34033;48.672;9.376;2023-09-08T01:30:15;98765.00;;;21.08;61.04
13312;BME280;34033;48.672;9.376;2023-09-08T01:32:42;98767.28;;;21.00;60.96
13312;BME280;34033;48.672;9.376;2023-09-08T01:35:09;98766.69;;;20.93;60.44
13312;BME280;34033;48.672;9.376;2023-09-08T01:37:35;98763.28;;;20.98;61.06
13312;BME280;34033;48.672;9.376;2023-09-08T01:40:01;98764.88;;;20.99;60.39
13312;BME280;34033;48.672;9.376;2023-09-08T01:42:26;98767.38;;;20.97;60.37
13312;BME280;34033;48.672;9.376;2023-09-08T01:44:51;98757.59;;;20.98;60.52
13312;BME280;34033;48.672;9.376;2023-09-08T01:47:16;98760.88;;;20.96;60.35
13312;BME280;34033;48.672;9.376;2023-09-08T01:49:42;98758.16;;;20.93;60.35
13312;BME280;34033;48.672;9.376;2023-09-08T01:52:07;98763.41;;;20.94;60.15
13312;BME280;34033;48.672;9.376;2023-09-08T01:54:32;98755.06;;;20.87;60.54
13312;BME280;34033;48.672;9.376;2023-09-08T01:56:58;98749.03;;;20.85;60.61
13312;BME280;34033;48.672;9.376;2023-09-08T01:59:23;98742.22;;;20.83;60.48
13312;BME280;34033;48.672;9.376;2023-09-08T02:01:48;98745.88;;;20.83;60.57
13312;BME280;34033;48.672;9.376;2023-09-08T02:04:14;98751.56;;;20.83;60.56
13312;BME280;34033;48.672;9.376;2023-09-08T02:06:39;98751.66;;;20.79;60.74
13312;BME280;34033;48.672;9.376;2023-09-08T02:09:04;98747.56;;;20.80;60.85
13312;BME280;34033;48.672;9.376;2023-09-08T02:11:29;98743.47;;;20.81;60.77
13312;BME280;34033;48.672;9.376;2023-09-08T02:13:55;98754.03;;;20.81;60.79
13312;BME280;34033;48.672;9.376;2023-09-08T02:16:20;98745.06;;;20.83;60.60
13312;BME280;34033;48.672;9.376;2023-09-08T02:18:45;98745.06;;;20.83;60.94
13312;BME280;34033;48.672;9.376;2023-09-08T02:21:11;98747.31;;;20.75;60.91
13312;BME280;34033;48.672;9.376;2023-09-08T02:23:37;98743.22;;;20.63;61.29
13312;BME280;34033;48.672;9.376;2023-09-08T02:26:02;98746.41;;;20.65;61.29
13312;BME280;34033;48.672;9.376;2023-09-08T02:28:28;98741.97;;;20.64;61.30
13312;BME280;34033;48.672;9.376;2023-09-08T02:30:53;98746.41;;;20.65;61.35
13312;BME280;34033;48.672;9.376;2023-09-08T02:33:19;98741.84;;;20.68;61.30
13312;BME280;34033;48.672;9.376;2023-09-08T02:35:44;98742.19;;;20.70;61.04
13312;BME280;34033;48.672;9.376;2023-09-08T02:38:10;98746.19;;;20.72;61.01
13312;BME280;34033;48.672;9.376;2023-09-08T02:40:35;98750.16;;;20.75;61.04
13312;BME280;34033;48.672;9.376;2023-09-08T02:43:01;98747.69;;;20.77;60.91
13312;BME280;34033;48.672;9.376;2023-09-08T02:45:27;98744.38;;;20.78;60.54
13312;BME280;34033;48.672;9.376;2023-09-08T02:47:52;98747.56;;;20.80;60.53
13312;BME280;34033;48.672;9.376;2023-09-08T02:50:18;98746.31;;;20.81;60.51
13312;BME280;34033;48.672;9.376;2023-09-08T02:52:43;98749.97;;;20.82;60.17
13312;BME280;34033;48.672;9.376;2023-09-08T02:55:09;98753.25;;;20.80;60.27
13312;BME280;34033;48.672;9.376;2023-09-08T02:57:34;98750.84;;;20.79;60.05
13312;BME280;34033;48.672;9.376;2023-09-08T03:00:00;98745.63;;;20.77;59.97
13312;BME280;34033;48.672;9.376;2023-09-08T03:02:26;98741.53;;;20.78;60.05
13312;BME280;34033;48.672;9.376;2023-09-08T03:04:51;98740.28;;;20.79;59.92
13312;BME280;34033;48.672;9.376;2023-09-08T03:07:16;98743.59;;;20.78;59.70
13312;BME280;34033;48.672;9.376;2023-09-08T03:09:42;98745.28;;;20.75;59.73
13312;BME280;34033;48.672;9.376;2023-09-08T03:12:07;98747.00;;;20.73;59.65
13312;BME280;34033;48.672;9.376;2023-09-08T03:14:33;98750.72;;;20.70;59.86
13312;BME280;34033;48.672;9.376;2023-09-08T03:16:58;98745.16;;;20.66;60.13
13312;BME280;34033;48.672;9.376;2023-09-08T03:19:23;98748.56;;;20.61;60.55
13312;BME280;34033;48.672;9.376;2023-09-08T03:21:49;98747.59;;;20.52;61.17
13312;BME280;34033;48.672;9.376;2023-09-08T03:24:14;98748.41;;;20.52;61.02
13312;BME280;34033;48.672;9.376;2023-09-08T03:26:39;98740.25;;;20.54;61.00
13312;BME280;34033;48.672;9.376;2023-09-08T03:29:06;98750.56;;;20.48;61.12
13312;BME280;34033;48.672;9.376;2023-09-08T03:31:31;98745.22;;;20.50;61.08
13312;BME280;34033;48.672;9.376;2023-09-08T03:33:57;98738.63;;;20.53;60.93
13312;BME280;34033;48.672;9.376;2023-09-08T03:36:22;98750.91;;;20.50;60.81
13312;BME280;34033;48.672;9.376;2023-09-08T03:38:47;98746.81;;;20.51;60.77
13312;BME280;34033;48.672;9.376;2023-09-08T03:41:14;98746.69;;;20.26;61.22
13312;BME280;34033;48.672;9.376;2023-09-08T03:43:40;98745.19;;;19.92;61.85
13312;BME280;34033;48.672;9.376;2023-09-08T03:46:05;98746.03;;;19.61;62.47
13312;BME280;34033;48.672;9.376;2023-09-08T03:48:30;98749.25;;;19.27;63.38
13312;BME280;34033;48.672;9.376;2023-09-08T03:50:56;98742.38;;;18.92;64.26
13312;BME280;34033;48.672;9.376;2023-09-08T03:53:21;98751.97;;;18.62;65.00
13312;BME280;34033;48.672;9.376;2023-09-08T03:55:46;98748.00;;;18.36;65.59
13312;BME280;34033;48.672;9.376;2023-09-08T03:58:12;98742.75;;;18.15;66.17
13312;BME280;34033;48.672;9.376;2023-09-08T04:00:37;98753.19;;;17.98;67.09
13312;BME280;34033;48.672;9.376;2023-09-08T04:03:03;98756.28;;;17.84;67.74
13312;BME280;34033;48.672;9.376;2023-09-08T04:05:29;98754.88;;;17.72;68.83
13312;BME280;34033;48.672;9.376;2023-09-08T04:07:54;98759.13;;;17.61;69.52
13312;BME280;34033;48.672;9.376;2023-09-08T04:10:19;98762.03;;;17.53;71.10
13312;BME280;34033;48.672;9.376;2023-09-08T04:12:45;98760.88;;;17.51;71.63
13312;BME280;34033;48.672;9.376;2023-09-08T04:15:10;98768.19;;;17.48;72.41
13312;BME280;34033;48.672;9.376;2023-09-08T04:17:36;98767.94;;;17.39;72.93
13312;BME280;34033;48.672;9.376;2023-09-08T04:20:03;98761.09;;;17.37;73.38
13312;BME280;34033;48.672;9.376;2023-09-08T04:22:30;98764.00;;;17.33;73.58
13312;BME280;34033;48.672;9.376;2023-09-08T04:24:55;98762.88;;;17.27;73.37
13312;BME280;34033;48.672;9.376;2023-09-08T04:27:22;98770.63;;;17.23;74.10
13312;BME280;34033;48.672;9.376;2023-09-08T04:29:47;98772.72;;;17.16;74.22
13312;BME280;34033;48.672;9.376;2023-09-08T04:32:13;98769.66;;;17.06;74.37
13312;BME280;34033;48.672;9.376;2023-09-08T04:34:39;98781.50;;;16.98;75.00
13312;BME280;34033;48.672;9.376;2023-09-08T04:37:05;98778.38;;;16.89;74.99
13312;BME280;34033;48.672;9.376;2023-09-08T04:39:31;98780.06;;;16.83;75.77
13312;BME280;34033;48.672;9.376;2023-09-08T04:41:57;98781.75;;;16.77;76.17
13312;BME280;34033;48.672;9.376;2023-09-08T04:44:22;98783.38;;;16.78;75.96
13312;BME280;34033;48.672;9.376;2023-09-08T04:46:48;98778.13;;;16.76;75.57
13312;BME280;34033;48.672;9.376;2023-09-08T04:49:13;98790.34;;;16.70;74.61
13312;BME280;34033;48.672;9.376;2023-09-08T04:51:38;98793.66;;;16.64;73.81
13312;BME280;34033;48.672;9.376;2023-09-08T04:54:04;98789.22;;;16.63;73.61
13312;BME280;34033;48.672;9.376;2023-09-08T04:56:29;98788.81;;;16.61;73.75
13312;BME280;34033;48.672;9.376;2023-09-08T04:58:55;98792.88;;;16.57;74.59
13312;BME280;34033;48.672;9.376;2023-09-08T05:01:21;98789.69;;;16.55;74.58
13312;BME280;34033;48.672;9.376;2023-09-08T05:03:46;98783.63;;;16.56;74.58
13312;BME280;34033;48.672;9.376;2023-09-08T05:06:12;98782.78;;;16.59;74.55
13312;BME280;34033;48.672;9.376;2023-09-08T05:08:39;98786.03;;;16.58;74.73
13312;BME280;34033;48.672;9.376;2023-09-08T05:11:04;98791.25;;;16.59;75.01
13312;BME280;34033;48.672;9.376;2023-09-08T05:13:29;98789.25;;;16.56;75.52
13312;BME280;34033;48.672;9.376;2023-09-08T05:15:55;98788.50;;;16.52;76.07
13312;BME280;34033;48.672;9.376;2023-09-08T05:18:26;98784.09;;;16.51;75.95
13312;BME280;34033;48.672;9.376;2023-09-08T05:20:52;98796.13;;;16.55;75.74
13312;BME280;34033;48.672;9.376;2023-09-08T05:23:17;98795.69;;;16.60;75.93
13312;BME280;34033;48.672;9.376;2023-09-08T05:25:42;98794.00;;;16.66;75.36
13312;BME280;34033;48.672;9.376;2023-09-08T05:28:08;98785.53;;;16.66;75.47
13312;BME280;34033;48.672;9.376;2023-09-08T05:30:34;98794.34;;;16.72;75.42
13312;BME280;34033;48.672;9.376;2023-09-08T05:33:00;98800.72;;;16.76;75.06
13312;BME280;34033;48.672;9.376;2023-09-08T05:35:25;98799.88;;;16.79;74.71
13312;BME280;34033;48.672;9.376;2023-09-08T05:37:50;98807.88;;;16.84;74.60
13312;BME280;34033;48.672;9.376;2023-09-08T05:40:16;98803.47;;;16.83;74.88
13312;BME280;34033;48.672;9.376;2023-09-08T05:42:41;98809.50;;;16.85;74.77
13312;BME280;34033;48.672;9.376;2023-09-08T05:45:07;98810.63;;;16.91;74.83
13312;BME280;34033;48.672;9.376;2023-09-08T05:47:32;98815.41;;;16.94;75.64
13312;BME280;34033;48.672;9.376;2023-09-08T05:49:57;98816.22;;;16.95;76.21
13312;BME280;34033;48.672;9.376;2023-09-08T05:52:22;98811.75;;;16.97;76.16
13312;BME280;34033;48.672;9.376;2023-09-08T05:54:48;98810.06;;;17.03;76.46
13312;BME280;34033;48.672;9.376;2023-09-08T05:57:13;98817.25;;;17.08;75.92
13312;BME280;34033;48.672;9.376;2023-09-08T05:59:38;98820.44;;;17.10;75.51
13312;BME280;34033;48.672;9.376;2023-09-08T06:02:04;98824.38;;;17.16;76.22
13312;BME280;34033;48.672;9.376;2023-09-08T06:04:29;98813.06;;;17.20;76.72
13312;BME280;34033;48.672;9.376;2023-09-08T06:06:57;98810.22;;;17.20;77.08
13312;BME280;34033;48.672;9.376;2023-09-08T06:09:22;98801.69;;;17.23;77.41
13312;BME280;34033;48.672;9.376;2023-09-08T06:11:48;98801.59;;;17.30;77.05
13312;BME280;34033;48.672;9.376;2023-09-08T06:14:13;98805.53;;;17.36;77.25
13312;BME280;34033;48.672;9.376;2023-09-08T06:16:38;98804.19;;;17.44;77.23
13312;BME280;34033;48.672;9.376;2023-09-08T06:19:05;98803.03;;;17.42;76.99
13312;BME280;34033;48.672;9.376;2023-09-08T06:21:30;98800.13;;;17.45;77.18
13312;BME280;34033;48.672;9.376;2023-09-08T06:23:55;98805.31;;;17.50;77.04
13312;BME280;34033;48.672;9.376;2023-09-08T06:26:21;98809.63;;;17.59;77.05
13312;BME280;34033;48.672;9.376;2023-09-08T06:28:46;98812.00;;;17.64;77.14
13312;BME280;34033;48.672;9.376;2023-09-08T06:31:11;98806.19;;;17.71;76.68
13312;BME280;34033;48.672;9.376;2023-09-08T06:33:37;98805.72;;;17.76;76.85
13312;BME280;34033;48.672;9.376;2023-09-08T06:36:02;98807.19;;;17.84;76.66
13312;BME280;34033;48.672;9.376;2023-09-08T06:38:28;98801.47;;;17.87;76.87
13312;BME280;34033;48.672;9.376;2023-09-08T06:40:56;98801.78;;;17.93;76.33
13312;BME280;34033;48.672;9.376;2023-09-08T06:43:21;98806.50;;;18.00;76.30
13312;BME280;34033;48.672;9.376;2023-09-08T06:45:48;98804.88;;;18.02;76.83
13312;BME280;34033;48.672;9.376;2023-09-08T06:48:14;98805.16;;;18.08;76.72
13312;BME280;34033;48.672;9.376;2023-09-08T06:50:39;98809.53;;;18.12;76.27
13312;BME280;34033;48.672;9.376;2023-09-08T06:53:05;98802.56;;;18.17;76.02
13312;BME280;34033;48.672;9.376;2023-09-08T06:55:30;98808.09;;;18.24;75.72
13312;BME280;34033;48.672;9.376;2023-09-08T06:57:56;98803.09;;;18.31;75.82
13312;BME280;34033;48.672;9.376;2023-09-08T07:00:22;98809.53;;;18.32;75.69
13312;BME280;34033;48.672;9.376;2023-09-08T07:02:47;98813.56;;;18.34;75.26
13312;BME280;34033;48.672;9.376;2023-09-08T07:05:15;98813.47;;;18.38;75.55
13312;BME280;34033;48.672;9.376;2023-09-08T07:07:40;98808.47;;;18.46;75.54
13312;BME280;34033;48.672;9.376;2023-09-08T07:10:06;98801.84;;;18.56;75.41
13312;BME280;34033;48.672;9.376;2023-09-08T07:12:32;98807.34;;;18.63;75.08
13312;BME280;34033;48.672;9.376;2023-09-08T07:14:57;98800.28;;;18.71;74.74
13312;BME280;34033;48.672;9.376;2023-09-08T07:17:24;98800.50;;;18.80;74.71
13312;BME280;34033;48.672;9.376;2023-09-08T07:19:50;98795.06;;;18.89;74.89
13312;BME280;34033;48.672;9.376;2023-09-08T07:22:15;98798.88;;;18.99;74.55
13312;BME280;34033;48.672;9.376;2023-09-08T07:24:41;98799.97;;;19.05;74.13
13312;BME280;34033;48.672;9.376;2023-09-08T07:27:06;98795.56;;;19.20;73.41
13312;BME280;34033;48.672;9.376;2023-09-08T07:29:32;98795.59;;;19.36;72.59
13312;BME280;34033;48.672;9.376;2023-09-08T07:31:58;98798.69;;;19.42;72.88
13312;BME280;34033;48.672;9.376;2023-09-08T07:34:23;98798.25;;;19.43;73.16
13312;BME280;34033;48.672;9.376;2023-09-08T07:36:48;98793.34;;;19.47;73.21
13312;BME280;34033;48.672;9.376;2023-09-08T07:39:14;98793.25;;;19.51;73.40
13312;BME280;34033;48.672;9.376;2023-09-08T07:41:39;98788.28;;;19.55;73.29
13312;BME280;34033;48.672;9.376;2023-09-08T07:44:06;98796.28;;;19.60;73.54
13312;BME280;34033;48.672;9.376;2023-09-08T07:46:32;98790.69;;;19.73;71.72
13312;BME280;34033;48.672;9.376;2023-09-08T07:49:00;98788.19;;;19.91;71.44
13312;BME280;34033;48.672;9.376;2023-09-08T07:51:26;98786.34;;;20.01;72.12
13312;BME280;34033;48.672;9.376;2023-09-08T07:53:53;98785.25;;;20.11;71.52
13312;BME280;34033;48.672;9.376;2023-09-08T07:56:19;98783.47;;;20.17;72.09
13312;BME280;34033;48.672;9.376;2023-09-08T07:58:44;98787.69;;;20.25;71.59
13312;BME280;34033;48.672;9.376;2023-09-08T08:01:09;98783.97;;;20.28;70.97
13312;BME280;34033;48.672;9.376;2023-09-08T08:03:35;98782.69;;;20.29;71.17
13312;BME280;34033;48.672;9.376;2023-09-08T08:06:01;98779.81;;;20.32;71.33
13312;BME280;34033;48.672;9.376;2023-09-08T08:08:26;98777.91;;;20.42;70.74
13312;BME280;34033;48.672;9.376;2023-09-08T08:10:52;98788.06;;;20.56;69.71
13312;BME280;34033;48.672;9.376;2023-09-08T08:13:17;98778.00;;;20.67;70.08
13312;BME280;34033;48.672;9.376;2023-09-08T08:15:43;98779.38;;;20.75;70.32
13312;BME280;34033;48.672;9.376;2023-09-08T08:18:10;98779.84;;;20.87;67.93
13312;BME280;34033;48.672;9.376;2023-09-08T08:20:36;98771.44;;;20.96;68.78
13312;BME280;34033;48.672;9.376;2023-09-08T08:23:02;98773.41;;;20.99;68.61
13312;BME280;34033;48.672;9.376;2023-09-08T08:25:28;98775.44;;;20.98;68.48
13312;BME280;34033;48.672;9.376;2023-09-08T08:27:53;98771.13;;;21.06;68.10
13312;BME280;34033;48.672;9.376;2023-09-08T08:30:19;98766.28;;;21.19;68.02
13312;BME280;34033;48.672;9.376;2023-09-08T08:32:44;98767.31;;;21.38;65.06
13312;BME280;34033;48.672;9.376;2023-09-08T08:35:10;98774.13;;;21.53;64.70
13312;BME280;34033;48.672;9.376;2023-09-08T08:37:36;98766.69;;;21.69;63.19
13312;BME280;34033;48.672;9.376;2023-09-08T08:40:01;98766.03;;;21.77;63.75
13312;BME280;34033;48.672;9.376;2023-09-08T08:42:32;98763.72;;;21.85;63.27
13312;BME280;34033;48.672;9.376;2023-09-08T08:44:58;98765.88;;;21.93;62.79
13312;BME280;34033;48.672;9.376;2023-09-08T08:47:25;98773.72;;;22.02;63.59
13312;BME280;34033;48.672;9.376;2023-09-08T08:49:53;98758.78;;;22.11;61.79
13312;BME280;34033;48.672;9.376;2023-09-08T08:52:19;98760.91;;;22.19;61.82
13312;BME280;34033;48.672;9.376;2023-09-08T08:54:45;98758.94;;;22.29;61.97
13312;BME280;34033;48.672;9.376;2023-09-08T08:57:13;98758.81;;;22.32;61.87
13312;BME280;34033;48.672;9.376;2023-09-08T08:59:42;98753.63;;;22.40;61.34
13312;BME280;34033;48.672;9.376;2023-09-08T09:02:09;98755.88;;;22.45;60.46
13312;BME280;34033;48.672;9.376;2023-09-08T09:04:37;98754.38;;;22.53;60.45
13312;BME280;34033;48.672;9.376;2023-09-08T09:07:03;98758.44;;;22.65;60.51
13312;BME280;34033;48.672;9.376;2023-09-08T09:09:31;98755.66;;;22.74;60.93
13312;BME280;34033;48.672;9.376;2023-09-08T09:11:57;98747.16;;;22.83;60.84
13312;BME280;34033;48.672;9.376;2023-09-08T09:14:22;98747.88;;;22.96;61.25
13312;BME280;34033;48.672;9.376;2023-09-08T09:16:49;98747.00;;;23.08;61.32
13312;BME280;34033;48.672;9.376;2023-09-08T09:19:22;98740.53;;;23.17;59.83
13312;BME280;34033;48.672;9.376;2023-09-08T09:21:53;98740.72;;;23.22;60.12
13312;BME280;34033;48.672;9.376;2023-09-08T09:26:56;98739.16;;;23.31;61.76
13312;BME280;34033;48.672;9.376;2023-09-08T09:29:21;98743.50;;;23.44;62.00
13312;BME280;34033;48.672;9.376;2023-09-08T09:31:51;98743.41;;;23.57;61.22
13312;BME280;34033;48.672;9.376;2023-09-08T09:34:17;98743.94;;;23.74;61.16
13312;BME280;34033;48.672;9.376;2023-09-08T09:36:43;98739.53;;;23.82;60.10
13312;BME280;34033;48.672;9.376;2023-09-08T09:39:11;98742.22;;;23.94;59.77
13312;BME280;34033;48.672;9.376;2023-09-08T09:41:36;98738.44;;;24.06;58.94
13312;BME280;34033;48.672;9.376;2023-09-08T09:44:01;98735.94;;;24.18;58.58
13312;BME280;34033;48.672;9.376;2023-09-08T09:46:28;98734.19;;;24.29;58.27
13312;BME280;34033;48.672;9.376;2023-09-08T09:48:56;98729.41;;;24.44;58.10
13312;BME280;34033;48.672;9.376;2023-09-08T09:51:22;98732.41;;;24.59;57.67
13312;BME280;34033;48.672;9.376;2023-09-08T09:53:50;98734.16;;;24.75;56.69
13312;BME280;34033;48.672;9.376;2023-09-08T09:56:17;98731.06;;;24.87;56.27
13312;BME280;34033;48.672;9.376;2023-09-08T09:58:43;98724.41;;;25.00;54.81
13312;BME280;34033;48.672;9.376;2023-09-08T10:01:10;98734.53;;;25.10;54.62
13312;BME280;34033;48.672;9.376;2023-09-08T10:03:38;98732.59;;;25.25;54.13
13312;BME280;34033;48.672;9.376;2023-09-08T10:06:03;98725.72;;;25.31;52.79
13312;BME280;34033;48.672;9.376;2023-09-08T10:08:30;98726.47;;;25.41;53.05
13312;BME280;34033;48.672;9.376;2023-09-08T10:10:59;98721.78;;;25.53;53.31
13312;BME280;34033;48.672;9.376;2023-09-08T10:13:29;98720.19;;;25.61;52.51
13312;BME280;34033;48.672;9.376;2023-09-08T10:15:57;98713.38;;;25.82;52.60
13312;BME280;34033;48.672;9.376;2023-09-08T10:18:23;98710.69;;;26.02;52.30
13312;BME280;34033;48.672;9.376;2023-09-08T10:20:51;98711.00;;;26.28;51.90
13312;BME280;34033;48.672;9.376;2023-09-08T10:23:22;98707.56;;;26.53;51.35
13312;BME280;34033;48.672;9.376;2023-09-08T10:25:53;98700.06;;;26.71;50.46
13312;BME280;34033;48.672;9.376;2023-09-08T10:28:22;98702.78;;;26.89;50.31
13312;BME280;34033;48.672;9.376;2023-09-08T10:30:47;98689.22;;;27.04;49.76
13312;BME280;34033;48.672;9.376;2023-09-08T10:33:14;98694.13;;;27.18;48.71
13312;BME280;34033;48.672;9.376;2023-09-08T10:35:40;98692.53;;;27.32;48.86
13312;BME280;34033;48.672;9.376;2023-09-08T10:38:31;98689.53;;;27.41;47.78
13312;BME280;34033;48.672;9.376;2023-09-08T10:43:45;98687.38;;;27.51;47.39
13312;BME280;34033;48.672;9.376;2023-09-08T10:46:12;98681.97;;;27.58;47.41
13312;BME280;34033;48.672;9.376;2023-09-08T10:48:46;98685.50;;;27.68;47.34
13312;BME280;34033;48.672;9.376;2023-09-08T10:51:16;98683.56;;;27.79;47.62
13312;BME280;34033;48.672;9.376;2023-09-08T10:53:42;98679.50;;;27.86;46.81
13312;BME280;34033;48.672;9.376;2023-09-08T10:56:07;98685.69;;;27.99;46.23
13312;BME280;34033;48.672;9.376;2023-09-08T10:58:36;98675.84;;;28.26;46.64
13312;BME280;34033;48.672;9.376;2023-09-08T11:01:04;98676.38;;;28.50;45.91
13312;BME280;34033;48.672;9.376;2023-09-08T11:06:05;98670.69;;;28.82;45.12
13312;BME280;34033;48.672;9.376;2023-09-08T11:08:32;98672.63;;;28.96;44.98
13312;BME280;34033;48.672;9.376;2023-09-08T11:10:57;98671.44;;;29.08;44.14
13312;BME280;34033;48.672;9.376;2023-09-08T11:13:22;98669.72;;;29.22;44.45
13312;BME280;34033;48.672;9.376;2023-09-08T11:15:51;98676.28;;;29.28;44.06
13312;BME280;34033;48.672;9.376;2023-09-08T11:18:17;98674.06;;;29.43;43.94
13312;BME280;34033;48.672;9.376;2023-09-08T11:20:42;98663.41;;;29.55;44.18
13312;BME280;34033;48.672;9.376;2023-09-08T11:23:09;98668.09;;;29.52;43.24
13312;BME280;34033;48.672;9.376;2023-09-08T11:25:35;98675.13;;;29.14;43.57
13312;BME280;34033;48.672;9.376;2023-09-08T11:28:01;98667.22;;;29.03;44.21
13312;BME280;34033;48.672;9.376;2023-09-08T11:30:26;98667.13;;;28.92;44.65
13312;BME280;34033;48.672;9.376;2023-09-08T11:32:52;98670.31;;;29.00;44.61
13312;BME280;34033;48.672;9.376;2023-09-08T11:35:17;98670.00;;;29.29;44.17
13312;BME280;34033;48.672;9.376;2023-09-08T11:37:46;98667.59;;;29.54;44.30
13312;BME280;34033;48.672;9.376;2023-09-08T11:40:12;98658.53;;;29.77;44.32
13312;BME280;34033;48.672;9.376;2023-09-08T11:42:42;98656.06;;;30.02;45.07
13312;BME280;34033;48.672;9.376;2023-09-08T11:45:15;98659.81;;;30.24;43.77
13312;BME280;34033;48.672;9.376;2023-09-08T11:47:43;98660.63;;;30.31;43.33
13312;BME280;34033;48.672;9.376;2023-09-08T11:50:12;98659.06;;;30.41;42.79
13312;BME280;34033;48.672;9.376;2023-09-08T11:52:43;98662.28;;;30.54;42.16
13312;BME280;34033;48.672;9.376;2023-09-08T11:55:09;98654.63;;;30.45;41.49
13312;BME280;34033;48.672;9.376;2023-09-08T11:57:36;98663.25;;;30.34;42.51
13312;BME280;34033;48.672;9.376;2023-09-08T12:00:03;98652.97;;;30.16;41.80
13312;BME280;34033;48.672;9.376;2023-09-08T12:02:36;98647.22;;;30.22;43.21
13312;BME280;34033;48.672;9.376;2023-09-08T12:05:03;98657.00;;;30.47;42.79
13312;BME280;34033;48.672;9.376;2023-09-08T12:07:28;98654.97;;;30.70;41.88
13312;BME280;34033;48.672;9.376;2023-09-08T12:09:54;98651.53;;;30.71;41.33
13312;BME280;34033;48.672;9.376;2023-09-08T12:12:19;98637.41;;;30.90;40.56
13312;BME280;34033;48.672;9.376;2023-09-08T12:14:45;98646.09;;;31.06;41.19
13312;BME280;34033;48.672;9.376;2023-09-08T12:17:10;98649.72;;;31.35;41.06
13312;BME280;34033;48.672;9.376;2023-09-08T12:19:36;98632.59;;;31.65;40.22
13312;BME280;34033;48.672;9.376;2023-09-08T12:22:05;98639.94;;;31.77;38.44
13312;BME280;34033;48.672;9.376;2023-09-08T12:24:51;98630.47;;;31.76;39.18
13312;BME280;34033;48.672;9.376;2023-09-08T12:27:25;98644.72;;;31.46;38.39
13312;BME280;34033;48.672;9.376;2023-09-08T12:32:23;98630.59;;;30.98;39.44
13312;BME280;34033;48.672;9.376;2023-09-08T12:34:49;98635.56;;;30.98;39.89
13312;BME280;34033;48.672;9.376;2023-09-08T12:37:14;98632.69;;;30.92;39.25
13312;BME280;34033;48.672;9.376;2023-09-08T12:39:39;98637.88;;;30.60;38.48
13312;BME280;34033;48.672;9.376;2023-09-08T12:42:05;98635.56;;;30.76;39.07
13312;BME280;34033;48.672;9.376;2023-09-08T12:44:30;98638.47;;;30.92;38.87
13312;BME280;34033;48.672;9.376;2023-09-08T12:46:56;98631.91;;;31.03;38.97
13312;BME280;34033;48.672;9.376;2023-09-08T12:49:21;98629.56;;;31.07;37.64
13312;BME280;34033;48.672;9.376;2023-09-08T12:51:46;98636.09;;;31.13;37.16
13312;BME280;34033;48.672;9.376;2023-09-08T12:54:12;98629.00;;;31.25;37.08
13312;BME280;34033;48.672;9.376;2023-09-08T12:56:37;98621.31;;;31.61;37.96
13312;BME280;34033;48.672;9.376;2023-09-08T12:59:02;98615.72;;;31.91;37.70
13312;BME280;34033;48.672;9.376;2023-09-08T13:01:28;98612.19;;;32.15;37.42
13312;BME280;34033;48.672;9.376;2023-09-08T13:03:54;98613.25;;;32.12;36.80
13312;BME280;34033;48.672;9.376;2023-09-08T13:06:19;98606.31;;;32.32;36.41
13312;BME280;34033;48.672;9.376;2023-09-08T13:08:45;98598.00;;;32.58;36.67